createdAt,value
2022-08-25T00:01:29.735Z,76.50
2022-08-25T00:03:59.857Z,76.70
2022-08-25T00:06:28.785Z,76.80
2022-08-25T00:08:59.652Z,76.80
2022-08-25T00:11:29.332Z,76.90
2022-08-25T00:13:58.644Z,77.00
2022-08-25T00:16:26.504Z,77.00
2022-08-25T00:18:58.241Z,77.00
2022-08-25T00:21:25.089Z,77.20
2022-08-25T00:23:51.966Z,77.40
2022-08-25T00:26:18.801Z,77.20
2022-08-25T00:28:45.631Z,77.30
2022-08-25T00:31:18.181Z,77.30
2022-08-25T00:33:45.283Z,77.40
2022-08-25T00:36:12.525Z,77.40
2022-08-25T00:38:40.390Z,77.40
2022-08-25T00:41:07.545Z,77.50
2022-08-25T00:43:56.688Z,77.50
2022-08-25T00:46:35.196Z,77.70
2022-08-25T00:49:08.751Z,77.70
2022-08-25T00:51:52.611Z,77.70
2022-08-25T00:54:22.942Z,77.90
2022-08-25T00:56:51.346Z,78.00
2022-08-25T00:59:20.675Z,78.10
2022-08-25T01:01:47.937Z,78.20
2022-08-25T01:04:14.897Z,78.20
2022-08-25T01:06:43.766Z,78.20
2022-08-25T01:09:11.417Z,78.30
2022-08-25T01:11:38.331Z,78.30
2022-08-25T01:14:06.678Z,78.30
2022-08-25T01:16:37.521Z,78.30
2022-08-25T01:19:05.139Z,78.40
2022-08-25T01:21:34.488Z,78.40
2022-08-25T01:24:01.373Z,78.50
2022-08-25T01:26:31.067Z,78.60
2022-08-25T01:29:17.754Z,78.90
2022-08-25T01:31:45.135Z,79.20
2022-08-25T01:34:12.778Z,79.40
2022-08-25T01:36:40.043Z,79.80
2022-08-25T01:39:07.067Z,80.30
2022-08-25T01:41:47.256Z,81.70
2022-08-25T01:44:16.691Z,83.50
2022-08-25T01:46:43.909Z,85.00
2022-08-25T01:49:10.789Z,86.60
2022-08-25T01:51:44.949Z,88.10
2022-08-25T01:54:11.929Z,89.50
2022-08-25T01:56:38.818Z,90.00
2022-08-25T01:59:05.614Z,90.40
2022-08-25T02:01:32.787Z,90.90
2022-08-25T02:03:59.772Z,91.20
2022-08-25T02:06:32.382Z,91.60
2022-08-25T02:09:04.587Z,91.90
2022-08-25T02:11:32.141Z,92.10
2022-08-25T02:13:59.370Z,92.30
2022-08-25T02:16:34.362Z,92.50
2022-08-25T02:19:01.398Z,92.70
2022-08-25T02:21:28.396Z,92.80
2022-08-25T02:23:55.193Z,93.10
2022-08-25T02:26:22.579Z,93.30
2022-08-25T02:28:50.174Z,93.40
2022-08-25T02:31:18.079Z,93.60
2022-08-25T02:33:44.936Z,93.70
2022-08-25T02:36:11.932Z,93.90
2022-08-25T02:38:39.064Z,94.00
2022-08-25T02:41:16.780Z,94.10
2022-08-25T02:43:44.253Z,94.30
2022-08-25T02:46:11.931Z,94.30
2022-08-25T02:48:39.173Z,94.40
2022-08-25T02:51:06.534Z,94.50
2022-08-25T02:53:33.490Z,94.60
2022-08-25T02:56:00.286Z,94.60
2022-08-25T02:58:27.105Z,94.60
2022-08-25T03:00:53.996Z,94.70
2022-08-25T03:03:20.916Z,94.90
2022-08-25T03:05:47.735Z,95.00
2022-08-25T03:08:14.727Z,95.10
2022-08-25T03:10:41.645Z,95.10
2022-08-25T03:13:08.604Z,95.10
2022-08-25T03:15:37.954Z,95.10
2022-08-25T03:18:05.986Z,95.20
2022-08-25T03:20:35.726Z,95.30
2022-08-25T03:23:03.079Z,95.50
2022-08-25T03:25:48.751Z,95.50
2022-08-25T03:28:15.953Z,95.60
2022-08-25T03:30:42.909Z,95.70
2022-08-25T03:33:09.938Z,95.80
2022-08-25T03:35:36.702Z,95.90
2022-08-25T03:38:03.808Z,95.90
2022-08-25T03:40:30.814Z,96.20
2022-08-25T03:42:57.754Z,96.00
2022-08-25T03:45:24.850Z,96.00
2022-08-25T03:47:52.284Z,96.00
2022-08-25T03:50:19.594Z,96.10
2022-08-25T03:52:50.481Z,96.20
2022-08-25T03:55:17.277Z,96.30
2022-08-25T03:57:44.253Z,96.30
2022-08-25T04:00:12.414Z,96.30
2022-08-25T04:02:39.851Z,96.30
2022-08-25T04:05:07.279Z,96.40
2022-08-25T04:07:34.121Z,96.40
2022-08-25T04:10:01.055Z,96.40
2022-08-25T04:12:27.997Z,96.50
2022-08-25T04:14:54.785Z,96.50
2022-08-25T04:17:21.900Z,96.60
2022-08-25T04:19:48.688Z,96.60
2022-08-25T04:22:15.697Z,96.70
2022-08-25T04:24:42.512Z,96.70
2022-08-25T04:27:09.308Z,96.70
2022-08-25T04:29:36.113Z,96.70
2022-08-25T04:32:03.230Z,96.80
2022-08-25T04:34:31.415Z,96.80
2022-08-25T04:37:02.541Z,96.80
2022-08-25T04:39:29.513Z,96.90
2022-08-25T04:41:56.325Z,96.90
2022-08-25T04:44:23.182Z,96.90
2022-08-25T04:46:50.143Z,96.90
2022-08-25T04:49:16.998Z,96.90
2022-08-25T04:51:44.167Z,97.00
2022-08-25T04:54:13.210Z,97.00
2022-08-25T04:56:40.800Z,97.00
2022-08-25T04:59:09.736Z,97.10
2022-08-25T05:01:36.704Z,97.10
2022-08-25T05:04:04.947Z,97.10
2022-08-25T05:06:31.918Z,97.10
2022-08-25T05:08:59.334Z,97.20
2022-08-25T05:11:26.363Z,97.20
2022-08-25T05:13:55.445Z,97.20
2022-08-25T05:16:23.180Z,97.20
2022-08-25T05:18:50.106Z,97.20
2022-08-25T05:21:19.485Z,97.20
2022-08-25T05:23:47.003Z,97.20
2022-08-25T05:26:19.742Z,97.20
2022-08-25T05:28:47.818Z,97.30
2022-08-25T05:31:15.024Z,97.30
2022-08-25T05:33:42.198Z,97.40
2022-08-25T05:36:10.374Z,97.40
2022-08-25T05:38:37.967Z,97.40
2022-08-25T05:41:06.354Z,97.40
2022-08-25T05:43:33.587Z,97.40
2022-08-25T05:46:01.378Z,97.40
2022-08-25T05:48:28.401Z,97.40
2022-08-25T05:50:57.413Z,97.50
2022-08-25T05:53:24.462Z,97.60
2022-08-25T05:55:52.008Z,97.60
2022-08-25T05:58:18.945Z,97.60
2022-08-25T06:00:45.893Z,97.50
2022-08-25T06:03:13.199Z,97.60
2022-08-25T06:05:41.065Z,97.60
2022-08-25T06:08:07.884Z,97.60
2022-08-25T06:10:34.973Z,97.60
2022-08-25T06:13:01.950Z,97.70
2022-08-25T06:15:28.760Z,97.70
2022-08-25T06:18:00.967Z,98.00
2022-08-25T06:20:30.541Z,97.70
2022-08-25T06:22:57.538Z,97.60
2022-08-25T06:25:25.068Z,97.70
2022-08-25T06:27:51.900Z,97.70
2022-08-25T06:30:24.552Z,97.70
2022-08-25T06:32:55.867Z,97.70
2022-08-25T06:35:22.793Z,97.70
2022-08-25T06:37:49.602Z,97.70
2022-08-25T06:40:16.648Z,97.70
2022-08-25T06:42:46.938Z,97.70
2022-08-25T06:45:14.764Z,97.70
2022-08-25T06:47:41.646Z,97.70
2022-08-25T06:50:08.778Z,97.80
2022-08-25T06:52:35.732Z,97.90
2022-08-25T06:55:03.266Z,97.90
2022-08-25T06:57:31.708Z,97.90
2022-08-25T07:00:01.886Z,98.00
2022-08-25T07:02:28.847Z,98.00
2022-08-25T07:04:56.110Z,98.00
2022-08-25T07:07:23.062Z,98.00
2022-08-25T07:09:49.944Z,97.90
2022-08-25T07:12:16.953Z,97.90
2022-08-25T07:14:58.014Z,97.90
2022-08-25T07:17:30.766Z,98.00
2022-08-25T07:19:57.849Z,98.00
2022-08-25T07:22:25.116Z,98.00
2022-08-25T07:24:52.038Z,98.00
2022-08-25T07:27:19.026Z,98.00
2022-08-25T07:29:46.389Z,98.00
2022-08-25T07:32:13.491Z,98.00
2022-08-25T07:34:58.869Z,98.00
2022-08-25T07:37:47.906Z,98.00
2022-08-25T07:40:14.939Z,98.10
2022-08-25T07:42:42.218Z,98.00
2022-08-25T07:45:10.853Z,98.00
2022-08-25T07:47:39.011Z,98.00
2022-08-25T07:50:10.625Z,98.10
2022-08-25T07:52:38.857Z,98.20
2022-08-25T07:55:08.176Z,98.20
2022-08-25T07:57:35.517Z,98.20
2022-08-25T08:00:02.482Z,98.10
2022-08-25T08:02:31.237Z,98.20
2022-08-25T08:04:58.066Z,98.10
2022-08-25T08:07:42.310Z,98.10
2022-08-25T08:10:42.315Z,98.10
2022-08-25T08:12:58.898Z,98.10
2022-08-25T08:15:25.930Z,98.20
2022-08-25T08:17:57.875Z,98.20
2022-08-25T08:20:25.044Z,98.10
2022-08-25T08:22:52.178Z,98.20
2022-08-25T08:25:21.449Z,98.10
2022-08-25T08:27:55.068Z,98.10
2022-08-25T08:30:25.833Z,98.10
2022-08-25T08:33:09.290Z,98.20
2022-08-25T08:35:36.897Z,98.10
2022-08-25T08:38:05.446Z,98.20
2022-08-25T08:40:43.031Z,98.20
2022-08-25T08:43:18.308Z,98.20
2022-08-25T08:45:51.165Z,98.20
2022-08-25T08:48:42.985Z,98.10
2022-08-25T08:51:24.699Z,98.10
2022-08-25T08:54:20.528Z,98.10
2022-08-25T08:56:50.746Z,98.10
2022-08-25T08:59:19.628Z,98.00
2022-08-25T09:01:53.958Z,98.20
2022-08-25T09:04:26.372Z,98.20
2022-08-25T09:06:55.103Z,98.10
2022-08-25T09:09:35.849Z,98.00
2022-08-25T09:12:11.534Z,98.10
2022-08-25T09:14:44.561Z,98.10
2022-08-25T09:17:24.461Z,98.10
2022-08-25T09:20:19.072Z,98.10
2022-08-25T09:23:20.756Z,98.10
2022-08-25T09:26:01.069Z,98.20
2022-08-25T09:28:49.035Z,98.20
2022-08-25T09:31:29.453Z,98.20
2022-08-25T09:33:58.073Z,98.20
2022-08-25T09:36:25.019Z,98.20
2022-08-25T09:38:52.189Z,98.00
2022-08-25T09:41:39.727Z,97.90
2022-08-25T09:44:24.162Z,98.00
2022-08-25T09:47:04.833Z,98.10
2022-08-25T09:49:37.804Z,98.10
2022-08-25T09:52:28.632Z,98.20
2022-08-25T09:54:56.456Z,98.10
2022-08-25T09:57:34.544Z,98.20
2022-08-25T10:00:28.986Z,98.20
2022-08-25T10:03:22.652Z,98.20
2022-08-25T10:06:07.040Z,98.20
2022-08-25T10:08:47.014Z,98.20
2022-08-25T10:11:15.519Z,98.20
2022-08-25T10:13:51.463Z,98.10
2022-08-25T10:16:36.170Z,98.10
2022-08-25T10:19:06.741Z,98.00
2022-08-25T10:21:34.732Z,98.00
2022-08-25T10:24:06.233Z,98.10
2022-08-25T10:26:51.469Z,98.10
2022-08-25T10:29:25.158Z,98.10
2022-08-25T10:32:18.535Z,98.00
2022-08-25T10:34:51.379Z,98.00
2022-08-25T10:37:48.117Z,98.10
2022-08-25T10:40:24.230Z,98.10
2022-08-25T10:43:02.393Z,98.10
2022-08-25T10:45:44.780Z,98.10
2022-08-25T10:48:14.537Z,98.00
2022-08-25T10:51:05.479Z,98.00
2022-08-25T10:53:54.804Z,98.00
2022-08-25T10:56:29.644Z,98.00
2022-08-25T10:59:13.097Z,97.90
2022-08-25T11:01:53.984Z,98.10
2022-08-25T11:04:31.121Z,97.90
2022-08-25T11:07:03.686Z,97.90
2022-08-25T11:09:36.533Z,98.00
2022-08-25T11:12:06.837Z,98.00
2022-08-25T11:14:39.151Z,98.00
2022-08-25T11:17:11.883Z,98.00
2022-08-25T11:19:41.306Z,97.90
2022-08-25T11:22:20.492Z,97.90
2022-08-25T11:24:59.564Z,97.90
2022-08-25T11:27:40.889Z,97.90
2022-08-25T11:30:11.389Z,98.00
2022-08-25T11:32:38.332Z,97.90
2022-08-25T11:35:10.258Z,97.80
2022-08-25T11:37:45.825Z,97.70
2022-08-25T11:40:30.997Z,97.80
2022-08-25T11:43:08.238Z,97.80
2022-08-25T11:46:08.376Z,97.80
2022-08-25T11:48:47.443Z,97.70
2022-08-25T11:51:43.247Z,97.70
2022-08-25T11:54:41.694Z,97.60
2022-08-25T11:57:27.669Z,97.20
2022-08-25T11:59:57.349Z,97.10
2022-08-25T12:02:42.686Z,97.10
2022-08-25T12:05:29.550Z,97.10
2022-08-25T12:08:17.053Z,97.20
2022-08-25T12:11:03.095Z,97.20
2022-08-25T12:13:47.483Z,97.10
2022-08-25T12:16:36.496Z,97.20
2022-08-25T12:19:29.725Z,97.30
2022-08-25T12:21:59.337Z,97.10
2022-08-25T12:24:47.863Z,97.20
2022-08-25T12:27:34.116Z,97.40
2022-08-25T12:30:20.888Z,97.40
2022-08-25T12:33:30.780Z,97.20
2022-08-25T12:36:11.352Z,96.60
2022-08-25T12:38:52.182Z,96.00
2022-08-25T12:41:24.522Z,95.80
2022-08-25T12:43:52.868Z,95.80
2022-08-25T12:46:29.622Z,95.80
2022-08-25T12:49:13.294Z,95.70
2022-08-25T12:51:40.170Z,95.40
2022-08-25T12:54:22.307Z,95.30
2022-08-25T12:56:57.916Z,95.10
2022-08-25T12:59:42.882Z,95.00
2022-08-25T13:02:52.088Z,94.70
2022-08-25T13:05:41.117Z,94.40
2022-08-25T13:08:46.660Z,94.10
2022-08-25T13:11:21.464Z,94.20
2022-08-25T13:14:03.133Z,94.30
2022-08-25T13:16:30.309Z,95.00
2022-08-25T13:18:59.405Z,94.40
2022-08-25T13:21:39.553Z,93.70
2022-08-25T13:24:21.885Z,93.30
2022-08-25T13:26:50.753Z,92.90
2022-08-25T13:29:23.055Z,92.70
2022-08-25T13:32:09.549Z,92.20
2022-08-25T13:34:42.858Z,91.70
2022-08-25T13:37:30.313Z,91.00
2022-08-25T13:40:17.601Z,90.80
2022-08-25T13:42:52.946Z,90.40
2022-08-25T13:45:32.008Z,90.50
2022-08-25T13:47:59.163Z,89.80
2022-08-25T13:50:26.875Z,89.40
2022-08-25T13:53:11.379Z,88.50
2022-08-25T13:55:54.544Z,87.40
2022-08-25T13:58:39.191Z,85.80
2022-08-25T14:01:47.201Z,85.10
2022-08-25T14:04:24.198Z,84.10
2022-08-25T14:07:20.219Z,84.20
2022-08-25T14:09:50.027Z,84.70
2022-08-25T14:12:35.522Z,85.60
2022-08-25T14:15:17.438Z,85.40
2022-08-25T14:20:23.757Z,85.60
2022-08-25T14:22:54.749Z,85.40
2022-08-25T14:25:21.940Z,86.00
2022-08-25T14:28:07.260Z,85.70
2022-08-25T14:30:37.005Z,85.30
2022-08-25T14:33:04.064Z,85.40
2022-08-25T14:35:31.452Z,85.20
2022-08-25T14:37:58.401Z,84.90
2022-08-25T14:40:25.352Z,84.90
2022-08-25T14:42:52.213Z,84.90
2022-08-25T14:45:19.189Z,85.00
2022-08-25T14:47:49.772Z,85.10
2022-08-25T14:50:17.270Z,84.90
2022-08-25T14:52:47.993Z,84.40
2022-08-25T14:55:31.334Z,83.50
2022-08-25T14:57:58.909Z,83.00
2022-08-25T15:00:26.334Z,83.20
2022-08-25T15:02:53.226Z,82.70
2022-08-25T15:05:25.746Z,82.50
2022-08-25T15:08:12.400Z,82.50
2022-08-25T15:10:40.353Z,82.80
2022-08-25T15:13:07.351Z,82.90
2022-08-25T15:15:35.364Z,83.10
2022-08-25T15:18:02.447Z,83.30
2022-08-25T15:20:29.483Z,83.50
2022-08-25T15:22:57.820Z,83.70
2022-08-25T15:25:24.821Z,84.00
2022-08-25T15:27:51.668Z,84.20
2022-08-25T15:30:18.643Z,84.60
2022-08-25T15:32:48.507Z,84.90
2022-08-25T15:35:15.763Z,85.20
2022-08-25T15:37:42.681Z,85.10
2022-08-25T15:40:10.080Z,85.10
2022-08-25T15:42:38.085Z,85.20
2022-08-25T15:45:11.191Z,85.30
2022-08-25T15:47:38.122Z,85.40
2022-08-25T15:50:16.138Z,85.30
2022-08-25T15:52:48.514Z,85.30
2022-08-25T15:55:16.436Z,85.50
2022-08-25T15:57:43.573Z,85.70
2022-08-25T16:00:13.546Z,85.80
2022-08-25T16:02:43.666Z,85.80
2022-08-25T16:05:12.463Z,85.90
2022-08-25T16:07:42.512Z,86.10
2022-08-25T16:10:10.151Z,86.10
2022-08-25T16:12:39.985Z,86.30
2022-08-25T16:15:10.152Z,86.30
2022-08-25T16:17:40.765Z,86.30
2022-08-25T16:20:12.575Z,86.30
2022-08-25T16:22:41.133Z,86.30
2022-08-25T16:25:08.814Z,86.30
2022-08-25T16:27:38.757Z,86.30
2022-08-25T16:30:07.813Z,86.50
2022-08-25T16:32:35.013Z,86.60
2022-08-25T16:35:03.237Z,86.60
2022-08-25T16:37:30.103Z,86.70
2022-08-25T16:39:57.235Z,86.70
2022-08-25T16:42:24.382Z,86.60
2022-08-25T16:44:53.909Z,86.50
2022-08-25T16:47:25.184Z,86.60
2022-08-25T16:49:54.035Z,87.20
2022-08-25T16:52:40.720Z,86.70
2022-08-25T16:55:14.246Z,87.10
2022-08-25T16:57:47.982Z,87.00
2022-08-25T17:00:22.026Z,86.90
2022-08-25T17:02:51.580Z,87.00
2022-08-25T17:05:18.789Z,87.30
2022-08-25T17:08:05.985Z,87.30
2022-08-25T17:10:37.330Z,87.50
2022-08-25T17:13:04.635Z,87.40
2022-08-25T17:15:31.477Z,87.50
2022-08-25T17:17:58.574Z,87.60
2022-08-25T17:20:25.726Z,87.70
2022-08-25T17:22:54.906Z,88.20
2022-08-25T17:25:21.863Z,87.60
2022-08-25T17:27:48.762Z,87.50
2022-08-25T17:30:15.709Z,87.40
2022-08-25T17:32:43.728Z,87.30
2022-08-25T17:35:12.574Z,87.20
2022-08-25T17:37:41.085Z,87.10
2022-08-25T17:40:09.690Z,86.90
2022-08-25T17:42:38.147Z,86.60
2022-08-25T17:45:05.902Z,86.40
2022-08-25T17:47:34.070Z,86.20
2022-08-25T17:50:01.021Z,86.10
2022-08-25T17:52:29.702Z,86.10
2022-08-25T17:54:56.625Z,86.10
2022-08-25T17:57:26.045Z,86.20
2022-08-25T17:59:53.971Z,86.50
2022-08-25T18:02:21.471Z,86.60
2022-08-25T18:04:48.841Z,86.50
2022-08-25T18:07:15.725Z,86.60
2022-08-25T18:09:44.095Z,86.60
2022-08-25T18:12:12.619Z,86.50
2022-08-25T18:14:39.392Z,86.60
2022-08-25T18:17:06.321Z,86.90
2022-08-25T18:19:33.203Z,87.00
2022-08-25T18:22:04.443Z,87.00
2022-08-25T18:24:31.312Z,87.20
2022-08-25T18:26:58.926Z,87.20
2022-08-25T18:29:26.155Z,87.30
2022-08-25T18:31:58.316Z,87.40
2022-08-25T18:34:30.389Z,87.60
2022-08-25T18:36:58.902Z,87.80
2022-08-25T18:39:52.052Z,87.90
2022-08-25T18:42:20.010Z,88.10
2022-08-25T18:44:46.945Z,88.10
2022-08-25T18:47:13.811Z,88.30
2022-08-25T18:49:40.829Z,88.40
2022-08-25T18:52:07.783Z,88.40
2022-08-25T18:54:36.160Z,88.50
2022-08-25T18:57:03.842Z,88.50
2022-08-25T18:59:30.747Z,88.50
2022-08-25T19:01:57.784Z,88.50
2022-08-25T19:04:31.496Z,88.60
2022-08-25T19:06:58.705Z,88.70
2022-08-25T19:09:25.640Z,88.90
2022-08-25T19:11:52.669Z,89.00
2022-08-25T19:14:21.654Z,89.10
2022-08-25T19:16:48.766Z,89.10
2022-08-25T19:19:15.657Z,89.10
2022-08-25T19:21:42.519Z,89.20
2022-08-25T19:24:09.623Z,89.20
2022-08-25T19:26:36.556Z,89.30
2022-08-25T19:29:05.452Z,89.40
2022-08-25T19:31:36.045Z,89.30
2022-08-25T19:34:03.072Z,89.30
2022-08-25T19:36:30.250Z,89.30
2022-08-25T19:38:58.662Z,89.30
2022-08-25T19:41:26.145Z,89.50
2022-08-25T19:43:56.425Z,89.50
2022-08-25T19:46:35.446Z,89.50
2022-08-25T19:49:08.775Z,89.30
2022-08-25T19:51:37.799Z,89.50
2022-08-25T19:54:05.035Z,89.50
2022-08-25T19:56:33.707Z,89.50
2022-08-25T19:59:02.106Z,89.40
2022-08-25T20:01:29.114Z,89.40
2022-08-25T20:03:56.990Z,89.60
2022-08-25T20:06:24.149Z,89.60
2022-08-25T20:09:00.371Z,89.70
2022-08-25T20:11:28.232Z,89.80
2022-08-25T20:13:55.037Z,89.70
2022-08-25T20:16:23.370Z,89.70
2022-08-25T20:18:50.204Z,89.70
2022-08-25T20:21:17.409Z,89.70
2022-08-25T20:24:02.742Z,90.10
2022-08-25T20:26:30.046Z,89.90
2022-08-25T20:28:57.377Z,89.90
2022-08-25T20:31:24.375Z,89.90
2022-08-25T20:33:51.317Z,90.00
2022-08-25T20:36:19.432Z,90.00
2022-08-25T20:38:46.280Z,90.00
2022-08-25T20:41:13.379Z,90.00
2022-08-25T20:43:40.926Z,90.00
2022-08-25T20:46:08.380Z,90.00
2022-08-25T20:48:35.434Z,90.10
2022-08-25T20:51:08.950Z,90.10
2022-08-25T20:53:36.389Z,90.10
2022-08-25T20:56:07.407Z,90.10
2022-08-25T20:58:36.720Z,90.20
2022-08-25T21:01:06.732Z,90.20
2022-08-25T21:03:35.478Z,90.20
2022-08-25T21:06:07.056Z,90.30
2022-08-25T21:08:34.250Z,90.40
2022-08-25T21:11:02.060Z,90.40
2022-08-25T21:13:34.268Z,90.40
2022-08-25T21:16:15.445Z,90.50
2022-08-25T21:18:48.174Z,90.50
2022-08-25T21:21:16.695Z,90.60
2022-08-25T21:23:45.161Z,90.70
2022-08-25T21:26:15.822Z,90.70
2022-08-25T21:28:42.759Z,90.70
2022-08-25T21:31:15.034Z,90.80
2022-08-25T21:33:43.158Z,90.90
2022-08-25T21:36:11.169Z,90.90
2022-08-25T21:38:39.838Z,91.00
2022-08-25T21:41:09.694Z,91.00
2022-08-25T21:43:37.890Z,91.00
2022-08-25T21:46:06.125Z,91.10
2022-08-25T21:48:34.176Z,91.10
2022-08-25T21:51:07.777Z,91.20
2022-08-25T21:53:36.179Z,91.20
2022-08-25T21:56:07.968Z,91.20
2022-08-25T21:58:35.108Z,91.20
2022-08-25T22:01:11.222Z,91.20
2022-08-25T22:03:38.745Z,91.30
2022-08-25T22:06:07.440Z,91.30
2022-08-25T22:08:36.396Z,91.40
2022-08-25T22:11:04.333Z,91.50
2022-08-25T22:13:31.427Z,91.50
2022-08-25T22:15:59.031Z,91.60
2022-08-25T22:18:26.014Z,91.70
2022-08-25T22:20:52.960Z,91.70
2022-08-25T22:23:20.460Z,91.80
2022-08-25T22:25:48.385Z,91.90
2022-08-25T22:28:15.944Z,92.00
2022-08-25T22:30:45.047Z,92.00
2022-08-25T22:33:13.176Z,92.10
2022-08-25T22:35:40.402Z,92.20
2022-08-25T22:38:08.250Z,92.20
2022-08-25T22:40:39.782Z,92.30
2022-08-25T22:43:07.863Z,92.30
2022-08-25T22:45:37.692Z,92.40
2022-08-25T22:48:05.066Z,92.40
2022-08-25T22:50:34.700Z,92.50
2022-08-25T22:53:01.565Z,92.50
2022-08-25T22:55:28.520Z,92.50
2022-08-25T22:57:55.487Z,92.60
2022-08-25T23:00:22.515Z,92.70
2022-08-25T23:02:53.203Z,92.70
2022-08-25T23:05:20.285Z,92.80
2022-08-25T23:07:47.638Z,92.80
2022-08-25T23:10:14.731Z,92.90
2022-08-25T23:12:43.805Z,92.90
2022-08-25T23:15:11.919Z,93.00
2022-08-25T23:17:38.870Z,93.00
2022-08-25T23:20:26.736Z,93.10
2022-08-25T23:22:53.719Z,93.10
2022-08-25T23:25:21.094Z,93.20
2022-08-25T23:27:47.887Z,93.20
2022-08-25T23:30:18.654Z,93.20
2022-08-25T23:32:45.486Z,93.30
2022-08-25T23:35:14.888Z,93.30
2022-08-25T23:37:41.714Z,93.40
2022-08-25T23:40:10.636Z,93.40
2022-08-25T23:42:37.451Z,93.50
2022-08-25T23:45:04.673Z,93.40
2022-08-25T23:47:31.590Z,93.50
2022-08-25T23:49:59.206Z,93.50
2022-08-25T23:52:27.294Z,93.50
2022-08-25T23:54:54.667Z,93.50
2022-08-25T23:57:21.552Z,93.60
2022-08-25T23:59:48.800Z,93.60
